Airfield :
LOGIN :

Register | Disclaimer

   EN    FR    IT 

 










Legend :    VFR   Marginal VFR   IFR   Intensive IFR   Very Intensive IFR
Visi :
Ceiling :
>= 8 km
>= 3000ft
5 to 8 km
1000 to 3000 ft
1500m to 5 km
500 to 1000 ft
800 to 1500m
200 to 500 ft
< 800m
< 200 ft
Symbols :   Thunderstorms  Fog  Heavy snow  Heavy precipitations  Wind > 20 kt
SIGMETs :     Misc.  Thunderstorms  Icing  Turbulence  Mountain Waves  Volcanic Ashes







- Airport Elevation : 179 ft


LIPI - Rivolto AFB Udine

CURRENT METAR :
  • 160755Z /////KT 9999 SCT030 02/M03 Q1019 RMK SCT VIS MIN 9999 WIND THR06 02006KT WIND THR24 01005KT BLU

EXPIRED METARs :
  • 160655Z /////KT 9999 SCT030 01/M04 Q1019 RMK SCT VIS MIN 9999 WIND THR06 01006KT WIND THR24 36005KT BLU
  • 160555Z /////KT 9999 SCT027 01/M04 Q1018 RMK SCT VIS MIN 9999 WIND THR06 01007KT WIND THR24 36005KT BLU

TAF TAF LIPI
Valid from the 16 at 09:00 until the 16 at 18:00 UTC


160800Z 1609/1618 07006KT 9999 SCT030
No reported NOTAMs for that airfield.



MET'MAP, your aeronautical weather chart ! - Copyright ORBIFLY December 2007 - Disclaimer

ORBIFLY MET'MAP TEAM :

Programming & Development : Alexandra Zaïnal
Concept & Development : Baudouin d'Aumeries
Co-Development & Prog : Marc-Olivier Méhu
Technical & hardware support : Manuel Goepfert

Contact : metmap@orbifly.com




SOURCES & CREDITS :

   NOAA